EDT,Max TemperatureF,Mean TemperatureF,Min TemperatureF,Max Dew PointF,MeanDew PointF,Min DewpointF,Max Humidity, Mean Humidity, Min Humidity, Max Sea Level PressureIn, Mean Sea Level PressureIn, Min Sea Level PressureIn, Max VisibilityMiles, Mean VisibilityMiles, Min VisibilityMiles, Max Wind SpeedMPH, Mean Wind SpeedMPH, Max Gust SpeedMPH,PrecipitationIn, CloudCover, Events, WindDirDegrees
2013-6-1,73,68,62,63,62,59,94,80,64,29.93,29.83,29.74,10,9,2,15,4,25,1.08,6,Rain,208
2013-6-2,68,59,48,61,54,43,88,72,60,30.02,29.87,29.73,10,10,10,14,8,22,0.00,5,,268
2013-6-3,68,57,46,45,40,34,87,55,30,30.11,30.06,30.01,10,10,10,13,6,17,0.00,2,,9
2013-6-4,73,58,44,52,44,41,93,59,33,30.20,30.15,30.11,10,10,10,12,2,16,0.00,0,Rain,79
2013-6-5,75,63,51,52,46,34,77,52,33,30.15,30.07,29.96,10,10,10,14,7,16,0.00,0,,78
2013-6-6,73,64,55,52,48,43,72,58,44,29.97,29.88,29.83,10,10,10,14,7,16,0.00,1,,52
2013-6-7,71,62,53,54,51,48,94,69,46,29.93,29.89,29.87,10,9,2,10,5,,0.00,3,,32
2013-6-8,77,62,46,55,49,45,94,65,32,30.05,29.99,29.93,10,9,3,6,1,,0.00,2,,169
2013-6-9,82,70,59,63,56,52,88,63,35,30.08,30.01,29.91,10,9,5,7,4,,0.03,5,Rain,106
2013-6-10,78,71,64,64,62,57,94,79,47,29.90,29.81,29.77,10,7,2,14,5,18,0.34,6,Rain,218
2013-6-11,82,72,62,63,61,59,94,70,45,29.96,29.89,29.84,10,8,2,12,7,16,0.00,3,,262
2013-6-12,87,76,64,72,66,61,94,76,52,29.93,29.84,29.68,10,8,2,15,2,22,1.28,1,Rain,191
2013-6-13,78,69,60,63,56,46,94,66,34,29.97,29.80,29.58,10,10,5,21,8,26,0.19,4,Rain,313
2013-6-14,78,68,57,57,54,48,88,64,34,30.10,30.04,29.97,10,10,10,10,5,,0.00,1,,1
2013-6-15,77,66,55,63,58,54,94,76,47,30.13,30.05,29.96,10,9,5,9,1,,0.03,3,Rain,217
2013-6-16,80,72,64,64,62,61,88,72,54,29.95,29.92,29.89,10,10,7,14,5,25,0.01,4,Rain,248
2013-6-17,86,75,64,66,60,50,94,66,29,29.97,29.94,29.90,10,8,2,9,3,,0.00,1,,236
2013-6-18,78,69,60,61,57,46,88,67,44,30.06,29.97,29.89,10,10,7,12,5,18,0.00,4,,34
2013-6-19,77,64,50,55,47,43,77,55,32,30.17,30.13,30.07,10,10,10,8,4,,0.00,0,,78
2013-6-20,82,66,51,63,54,48,94,62,39,30.22,30.19,30.15,10,10,10,7,2,,0.00,1,,213
2013-6-21,86,73,60,61,57,52,94,56,31,30.22,30.16,30.05,10,10,4,8,2,,0.00,0,,192
2013-6-22,89,78,68,70,64,61,83,64,43,30.13,30.09,30.03,10,10,10,14,3,21,0.00,1,,223
2013-6-23,87,76,64,66,63,61,94,66,40,30.13,30.07,30.02,10,9,2,17,3,28,0.01,1,Rain,215
2013-6-24,86,76,66,68,64,63,94,67,45,30.11,30.06,29.96,10,9,2,10,4,36,0.01,1,Rain,227
2013-6-25,89,78,66,70,65,61,88,68,43,30.03,29.95,29.85,10,9,7,20,6,32,1.12,2,Rain,235
2013-6-26,86,76,66,70,66,64,94,83,55,29.93,29.85,29.76,10,9,2,17,3,25,0.46,3,Rain,204
2013-6-27,86,77,68,70,66,64,94,77,51,29.80,29.75,29.69,10,7,0,14,3,24,0.00,5,Fog-Rain,289
2013-6-28,82,73,64,64,61,54,94,70,44,29.70,29.63,29.59,10,10,5,20,5,25,0.16,1,Rain,290
2013-6-29,73,66,60,63,61,57,94,81,64,29.73,29.63,29.58,10,9,3,12,1,,0.03,3,Rain,32
2013-6-30,77,68,60,61,59,55,94,75,50,29.94,29.84,29.73,10,9,4,15,8,21,0.49,6,Rain,45